Chadron Municipal Airport
KCDR : now visible

Airfield :











YOU CAN JOIN US ON...

 
LOGIN :

Register | Disclaimer

   EN    FR    IT 

 









Legend :    VFR   Marginal VFR   IFR   Intensive IFR   Very Intensive IFR
Visi :
Ceiling :
>= 8 km
>= 3000ft
5 to 8 km
1000 to 3000 ft
1500m to 5 km
500 to 1000 ft
800 to 1500m
200 to 500 ft
< 800m
< 200 ft
Symbols :   Thunderstorms  Fog  Heavy snow  Heavy precipitations  Wind > 20 kt






- Airport Elevation : 3297 ft


KCDR - Chadron Municipal

CURRENT METAR :
  • 160853Z AUTO 29013KT 10SM OVC070 02/M12 A2992 RMK AO2 SLP158 T00171117 56008 $

EXPIRED METARs :
  • 160753Z AUTO 26008KT 10SM OVC070 00/M12 A2993 RMK AO2 SLP164 T00001122 $
  • 160653Z AUTO 20008KT 10SM OVC110 M01/M12 A2994 RMK AO2 SLP170 T10111122 400441078 $

TAF KCDR
Valid from the 16 at 06:00 until the 17 at 06:00 UTC


160520Z 1606/1706 27006KT P6SM FEW070
FM160800 29014G22KT P6SM SCT080
FM161800 32023G28KT P6SM FEW250
FM170000 31011KT P6SM SCT100
KZDV FIR / North America



MET'MAP, your aeronautical weather chart ! - Copyright ORBIFLY December 2007 - Disclaimer

ORBIFLY MET'MAP TEAM :

Programming & Development : Alexandra Zaïnal
Concept & original design : Baudouin d'Aumeries
Assistance for programming : Marc-Olivier Méhu
Technical & hardware support : Manuel Goepfert

Contact : metmap@orbifly.com




SOURCES & CREDITS :

   NOAA       Earth
Advisory